sensor_id;sensor_type;location;lat;lon;timestamp;pressure;altitude;pressure_sealevel;temperature;humidity
56713;BME280;42589;45.536;9.032;2022-07-18T00:02:00;100184.28;;;33.92;35.49
56713;BME280;42589;45.536;9.032;2022-07-18T00:05:20;100175.63;;;34.18;35.73
56713;BME280;42589;45.536;9.032;2022-07-18T00:08:21;100183.41;;;33.78;36.01
56713;BME280;42589;45.536;9.032;2022-07-18T00:11:23;100168.28;;;33.76;35.73
56713;BME280;42589;45.536;9.032;2022-07-18T00:14:24;100177.78;;;33.64;35.74
56713;BME280;42589;45.536;9.032;2022-07-18T00:17:25;100171.41;;;33.69;36.08
56713;BME280;42589;45.536;9.032;2022-07-18T00:20:26;100163.63;;;33.71;35.72
56713;BME280;42589;45.536;9.032;2022-07-18T00:23:26;100169.97;;;33.90;35.89
56713;BME280;42589;45.536;9.032;2022-07-18T00:26:27;100172.06;;;33.80;35.53
56713;BME280;42589;45.536;9.032;2022-07-18T00:29:28;100179.13;;;33.67;35.67
56713;BME280;42589;45.536;9.032;2022-07-18T00:32:29;100147.09;;;33.71;35.53
56713;BME280;42589;45.536;9.032;2022-07-18T00:35:30;100187.41;;;33.67;35.80
56713;BME280;42589;45.536;9.032;2022-07-18T00:38:31;100178.09;;;33.39;36.34
56713;BME280;42589;45.536;9.032;2022-07-18T00:41:32;100185.72;;;33.47;36.14
56713;BME280;42589;45.536;9.032;2022-07-18T00:44:33;100187.50;;;33.38;36.17
56713;BME280;42589;45.536;9.032;2022-07-18T00:47:34;100191.41;;;33.74;35.57
56713;BME280;42589;45.536;9.032;2022-07-18T00:50:34;100184.06;;;33.46;35.95
56713;BME280;42589;45.536;9.032;2022-07-18T00:53:35;100186.38;;;33.39;36.03
56713;BME280;42589;45.536;9.032;2022-07-18T00:56:36;100175.34;;;33.63;35.95
56713;BME280;42589;45.536;9.032;2022-07-18T00:59:38;100173.75;;;33.33;36.00
56713;BME280;42589;45.536;9.032;2022-07-18T01:02:58;100188.41;;;33.52;35.86
56713;BME280;42589;45.536;9.032;2022-07-18T01:05:59;100184.25;;;33.55;35.57
56713;BME280;42589;45.536;9.032;2022-07-18T01:09:00;100183.25;;;33.69;35.86
56713;BME280;42589;45.536;9.032;2022-07-18T01:12:02;100181.38;;;33.41;35.95
56713;BME280;42589;45.536;9.032;2022-07-18T01:15:05;100173.34;;;33.44;35.70
56713;BME280;42589;45.536;9.032;2022-07-18T01:18:06;100176.16;;;33.39;35.65
56713;BME280;42589;45.536;9.032;2022-07-18T01:21:06;100190.00;;;33.34;36.10
56713;BME280;42589;45.536;9.032;2022-07-18T01:24:07;100189.00;;;33.01;36.31
56713;BME280;42589;45.536;9.032;2022-07-18T01:27:08;100192.72;;;33.15;36.14
56713;BME280;42589;45.536;9.032;2022-07-18T01:30:10;100191.72;;;33.49;35.37
56713;BME280;42589;45.536;9.032;2022-07-18T01:33:11;100192.41;;;33.41;35.96
56713;BME280;42589;45.536;9.032;2022-07-18T01:36:11;100171.09;;;33.27;35.70
56713;BME280;42589;45.536;9.032;2022-07-18T01:39:13;100182.94;;;33.28;36.01
56713;BME280;42589;45.536;9.032;2022-07-18T01:42:14;100190.13;;;32.71;36.55
56713;BME280;42589;45.536;9.032;2022-07-18T01:45:18;100184.44;;;33.15;35.86
56713;BME280;42589;45.536;9.032;2022-07-18T01:48:20;100196.22;;;32.97;36.53
56713;BME280;42589;45.536;9.032;2022-07-18T01:51:22;100195.47;;;32.57;36.96
56713;BME280;42589;45.536;9.032;2022-07-18T01:54:26;100184.75;;;32.85;36.57
56713;BME280;42589;45.536;9.032;2022-07-18T01:57:27;100184.13;;;32.64;37.13
56713;BME280;42589;45.536;9.032;2022-07-18T02:00:28;100201.06;;;32.76;37.03
56713;BME280;42589;45.536;9.032;2022-07-18T02:03:29;100185.81;;;32.89;37.12
56713;BME280;42589;45.536;9.032;2022-07-18T02:06:30;100195.28;;;32.77;36.64
56713;BME280;42589;45.536;9.032;2022-07-18T02:09:31;100205.06;;;32.89;36.29
56713;BME280;42589;45.536;9.032;2022-07-18T02:12:35;100186.28;;;32.96;36.38
56713;BME280;42589;45.536;9.032;2022-07-18T02:15:36;100201.78;;;33.16;35.67
56713;BME280;42589;45.536;9.032;2022-07-18T02:18:37;100202.22;;;32.70;36.46
56713;BME280;42589;45.536;9.032;2022-07-18T02:21:37;100193.50;;;32.63;36.98
56713;BME280;42589;45.536;9.032;2022-07-18T02:24:38;100197.59;;;32.65;36.45
56713;BME280;42589;45.536;9.032;2022-07-18T02:27:39;100193.28;;;32.54;36.32
56713;BME280;42589;45.536;9.032;2022-07-18T02:30:40;100188.22;;;32.66;36.40
56713;BME280;42589;45.536;9.032;2022-07-18T02:33:47;100195.56;;;32.47;36.84
56713;BME280;42589;45.536;9.032;2022-07-18T02:36:48;100182.56;;;32.57;36.49
56713;BME280;42589;45.536;9.032;2022-07-18T02:39:50;100191.38;;;32.83;36.46
56713;BME280;42589;45.536;9.032;2022-07-18T02:42:51;100195.50;;;32.86;36.38
56713;BME280;42589;45.536;9.032;2022-07-18T02:45:52;100182.16;;;32.69;36.39
56713;BME280;42589;45.536;9.032;2022-07-18T02:48:53;100186.16;;;32.82;35.82
56713;BME280;42589;45.536;9.032;2022-07-18T02:52:02;100181.28;;;32.45;36.27
56713;BME280;42589;45.536;9.032;2022-07-18T02:55:04;100199.38;;;32.51;35.97
56713;BME280;42589;45.536;9.032;2022-07-18T02:58:04;100199.91;;;32.53;35.84
56713;BME280;42589;45.536;9.032;2022-07-18T03:01:06;100192.78;;;32.81;35.76
56713;BME280;42589;45.536;9.032;2022-07-18T03:04:07;100197.00;;;32.39;36.25
56713;BME280;42589;45.536;9.032;2022-07-18T03:07:07;100200.72;;;32.53;35.50
56713;BME280;42589;45.536;9.032;2022-07-18T03:10:11;100203.47;;;32.53;35.67
56713;BME280;42589;45.536;9.032;2022-07-18T03:13:14;100195.44;;;32.62;36.01
56713;BME280;42589;45.536;9.032;2022-07-18T03:16:16;100194.91;;;32.89;35.21
56713;BME280;42589;45.536;9.032;2022-07-18T03:19:17;100169.28;;;32.30;35.89
56713;BME280;42589;45.536;9.032;2022-07-18T03:22:17;100205.28;;;32.34;36.75
56713;BME280;42589;45.536;9.032;2022-07-18T03:25:19;100210.56;;;32.65;35.54
56713;BME280;42589;45.536;9.032;2022-07-18T03:28:20;100200.06;;;32.67;35.25
56713;BME280;42589;45.536;9.032;2022-07-18T03:31:20;100217.06;;;32.74;36.11
56713;BME280;42589;45.536;9.032;2022-07-18T03:34:21;100198.63;;;32.74;35.22
56713;BME280;42589;45.536;9.032;2022-07-18T03:37:25;100209.69;;;32.98;35.01
56713;BME280;42589;45.536;9.032;2022-07-18T03:40:43;100220.66;;;33.03;34.74
56713;BME280;42589;45.536;9.032;2022-07-18T03:43:44;100221.53;;;32.99;34.71
56713;BME280;42589;45.536;9.032;2022-07-18T03:46:45;100221.69;;;33.08;34.49
56713;BME280;42589;45.536;9.032;2022-07-18T03:49:45;100223.44;;;33.27;33.88
56713;BME280;42589;45.536;9.032;2022-07-18T03:52:47;100227.34;;;33.21;34.20
56713;BME280;42589;45.536;9.032;2022-07-18T03:55:48;100215.53;;;33.21;34.42
56713;BME280;42589;45.536;9.032;2022-07-18T03:58:49;100222.88;;;33.25;33.99
56713;BME280;42589;45.536;9.032;2022-07-18T04:01:50;100228.00;;;33.37;33.99
56713;BME280;42589;45.536;9.032;2022-07-18T04:04:51;100217.88;;;33.57;34.58
56713;BME280;42589;45.536;9.032;2022-07-18T04:07:52;100210.13;;;33.35;34.08
56713;BME280;42589;45.536;9.032;2022-07-18T04:10:53;100222.72;;;33.41;34.53
56713;BME280;42589;45.536;9.032;2022-07-18T04:13:54;100232.63;;;33.42;34.22
56713;BME280;42589;45.536;9.032;2022-07-18T04:16:55;100236.09;;;33.53;34.00
56713;BME280;42589;45.536;9.032;2022-07-18T04:19:56;100226.41;;;33.55;34.24
56713;BME280;42589;45.536;9.032;2022-07-18T04:22:59;100222.47;;;33.61;33.97
56713;BME280;42589;45.536;9.032;2022-07-18T04:26:01;100216.53;;;33.49;34.69
56713;BME280;42589;45.536;9.032;2022-07-18T04:29:04;100222.56;;;33.56;33.97
56713;BME280;42589;45.536;9.032;2022-07-18T04:32:05;100216.50;;;33.54;34.59
56713;BME280;42589;45.536;9.032;2022-07-18T04:35:07;100225.22;;;33.61;34.60
56713;BME280;42589;45.536;9.032;2022-07-18T04:38:09;100230.16;;;33.64;33.57
56713;BME280;42589;45.536;9.032;2022-07-18T04:41:10;100227.16;;;33.61;33.79
56713;BME280;42589;45.536;9.032;2022-07-18T04:44:11;100233.47;;;33.85;34.08
56713;BME280;42589;45.536;9.032;2022-07-18T04:47:12;100239.03;;;33.80;34.00
56713;BME280;42589;45.536;9.032;2022-07-18T04:50:13;100234.59;;;33.84;33.63
56713;BME280;42589;45.536;9.032;2022-07-18T04:53:14;100222.69;;;33.65;33.02
56713;BME280;42589;45.536;9.032;2022-07-18T04:56:16;100234.75;;;33.50;33.08
56713;BME280;42589;45.536;9.032;2022-07-18T04:59:17;100239.78;;;33.86;32.47
56713;BME280;42589;45.536;9.032;2022-07-18T05:02:18;100243.22;;;33.96;32.53
56713;BME280;42589;45.536;9.032;2022-07-18T05:05:20;100244.69;;;33.46;33.16
56713;BME280;42589;45.536;9.032;2022-07-18T05:08:21;100244.69;;;33.46;33.14
56713;BME280;42589;45.536;9.032;2022-07-18T05:11:22;100245.78;;;34.12;32.29
56713;BME280;42589;45.536;9.032;2022-07-18T05:14:23;100228.72;;;33.91;32.24
56713;BME280;42589;45.536;9.032;2022-07-18T05:17:24;100240.47;;;33.96;32.37
56713;BME280;42589;45.536;9.032;2022-07-18T05:20:26;100246.97;;;34.06;32.86
56713;BME280;42589;45.536;9.032;2022-07-18T05:23:27;100247.09;;;33.95;32.07
56713;BME280;42589;45.536;9.032;2022-07-18T05:26:27;100235.44;;;33.37;32.31
56713;BME280;42589;45.536;9.032;2022-07-18T05:29:28;100240.19;;;33.55;31.16
56713;BME280;42589;45.536;9.032;2022-07-18T05:32:30;100233.72;;;34.08;31.20
56713;BME280;42589;45.536;9.032;2022-07-18T05:35:31;100230.34;;;34.30;31.00
56713;BME280;42589;45.536;9.032;2022-07-18T05:38:32;100264.91;;;33.84;31.28
56713;BME280;42589;45.536;9.032;2022-07-18T05:41:33;100255.41;;;34.14;31.10
56713;BME280;42589;45.536;9.032;2022-07-18T05:44:37;100261.75;;;34.53;30.38
56713;BME280;42589;45.536;9.032;2022-07-18T05:47:38;100237.72;;;34.53;30.47
56713;BME280;42589;45.536;9.032;2022-07-18T05:50:41;100267.63;;;34.27;30.35
56713;BME280;42589;45.536;9.032;2022-07-18T05:53:43;100248.97;;;33.81;31.34
56713;BME280;42589;45.536;9.032;2022-07-18T05:57:07;100252.72;;;34.28;30.36
56713;BME280;42589;45.536;9.032;2022-07-18T06:00:09;100242.84;;;34.60;31.57
56713;BME280;42589;45.536;9.032;2022-07-18T06:03:14;100257.78;;;34.59;30.33
56713;BME280;42589;45.536;9.032;2022-07-18T06:06:15;100250.53;;;34.25;31.03
56713;BME280;42589;45.536;9.032;2022-07-18T06:09:19;100262.78;;;33.57;31.34
56713;BME280;42589;45.536;9.032;2022-07-18T06:12:21;100251.13;;;33.36;32.04
56713;BME280;42589;45.536;9.032;2022-07-18T06:15:23;100253.75;;;34.51;30.38
56713;BME280;42589;45.536;9.032;2022-07-18T06:18:23;100245.41;;;34.37;30.70
56713;BME280;42589;45.536;9.032;2022-07-18T06:21:24;100258.25;;;34.80;29.88
56713;BME280;42589;45.536;9.032;2022-07-18T06:24:26;100253.69;;;34.89;29.48
56713;BME280;42589;45.536;9.032;2022-07-18T06:27:27;100271.13;;;34.71;29.66
56713;BME280;42589;45.536;9.032;2022-07-18T06:30:28;100256.53;;;35.30;29.94
56713;BME280;42589;45.536;9.032;2022-07-18T06:33:33;100272.16;;;35.49;29.11
56713;BME280;42589;45.536;9.032;2022-07-18T06:36:34;100278.31;;;35.46;28.72
56713;BME280;42589;45.536;9.032;2022-07-18T06:39:34;100254.56;;;35.45;29.00
56713;BME280;42589;45.536;9.032;2022-07-18T06:42:35;100265.94;;;34.83;29.56
56713;BME280;42589;45.536;9.032;2022-07-18T06:45:36;100270.63;;;35.29;28.55
56713;BME280;42589;45.536;9.032;2022-07-18T06:48:41;100248.44;;;33.98;29.86
56713;BME280;42589;45.536;9.032;2022-07-18T06:51:42;100261.94;;;34.56;29.77
56713;BME280;42589;45.536;9.032;2022-07-18T06:54:43;100289.44;;;35.27;29.41
56713;BME280;42589;45.536;9.032;2022-07-18T06:57:44;100276.16;;;35.15;28.81
56713;BME280;42589;45.536;9.032;2022-07-18T07:00:45;100280.97;;;35.51;28.63
56713;BME280;42589;45.536;9.032;2022-07-18T07:03:46;100283.44;;;34.92;29.14
56713;BME280;42589;45.536;9.032;2022-07-18T07:06:47;100281.34;;;35.17;28.93
56713;BME280;42589;45.536;9.032;2022-07-18T07:09:48;100279.69;;;35.02;29.29
56713;BME280;42589;45.536;9.032;2022-07-18T07:12:50;100269.50;;;35.30;29.16
56713;BME280;42589;45.536;9.032;2022-07-18T07:15:51;100268.38;;;34.84;29.22
56713;BME280;42589;45.536;9.032;2022-07-18T07:18:52;100270.50;;;34.74;29.49
56713;BME280;42589;45.536;9.032;2022-07-18T07:21:54;100269.00;;;36.33;27.32
56713;BME280;42589;45.536;9.032;2022-07-18T07:24:55;100276.41;;;36.24;27.87
56713;BME280;42589;45.536;9.032;2022-07-18T07:27:56;100281.19;;;36.10;27.28
56713;BME280;42589;45.536;9.032;2022-07-18T07:30:57;100266.75;;;36.35;27.15
56713;BME280;42589;45.536;9.032;2022-07-18T07:33:58;100272.41;;;35.66;28.36
56713;BME280;42589;45.536;9.032;2022-07-18T07:36:59;100255.97;;;35.84;28.01
56713;BME280;42589;45.536;9.032;2022-07-18T07:40:00;100269.09;;;36.28;27.64
56713;BME280;42589;45.536;9.032;2022-07-18T07:43:09;100257.09;;;35.14;28.21
56713;BME280;42589;45.536;9.032;2022-07-18T07:46:10;100249.28;;;36.12;26.44
56713;BME280;42589;45.536;9.032;2022-07-18T07:49:12;100254.06;;;35.84;26.63
56713;BME280;42589;45.536;9.032;2022-07-18T07:52:13;100263.19;;;36.21;26.71
56713;BME280;42589;45.536;9.032;2022-07-18T07:55:14;100268.59;;;35.34;26.14
56713;BME280;42589;45.536;9.032;2022-07-18T07:58:15;100258.22;;;35.95;26.02
56713;BME280;42589;45.536;9.032;2022-07-18T08:01:16;100272.28;;;35.44;26.33
56713;BME280;42589;45.536;9.032;2022-07-18T08:04:20;100251.41;;;34.91;26.26
56713;BME280;42589;45.536;9.032;2022-07-18T08:07:21;100269.81;;;35.28;26.78
56713;BME280;42589;45.536;9.032;2022-07-18T08:10:21;100252.22;;;35.38;26.07
56713;BME280;42589;45.536;9.032;2022-07-18T08:13:22;100244.31;;;34.71;27.13
56713;BME280;42589;45.536;9.032;2022-07-18T08:16:23;100263.41;;;35.00;26.89
56713;BME280;42589;45.536;9.032;2022-07-18T08:19:24;100261.81;;;35.13;26.41
56713;BME280;42589;45.536;9.032;2022-07-18T08:22:25;100248.03;;;35.54;26.77
56713;BME280;42589;45.536;9.032;2022-07-18T08:25:28;100271.25;;;35.67;25.41
56713;BME280;42589;45.536;9.032;2022-07-18T08:28:30;100253.44;;;35.32;25.99
56713;BME280;42589;45.536;9.032;2022-07-18T08:31:30;100262.03;;;36.81;24.68
56713;BME280;42589;45.536;9.032;2022-07-18T08:34:31;100253.03;;;36.75;24.89
56713;BME280;42589;45.536;9.032;2022-07-18T08:37:32;100245.50;;;36.67;24.56
56713;BME280;42589;45.536;9.032;2022-07-18T08:40:32;100242.00;;;36.16;25.28
56713;BME280;42589;45.536;9.032;2022-07-18T08:43:35;100235.28;;;35.95;25.52
56713;BME280;42589;45.536;9.032;2022-07-18T08:46:39;100244.44;;;36.85;25.41
56713;BME280;42589;45.536;9.032;2022-07-18T08:49:40;100250.13;;;36.13;24.54
56713;BME280;42589;45.536;9.032;2022-07-18T08:52:41;100245.97;;;36.46;24.20
56713;BME280;42589;45.536;9.032;2022-07-18T08:55:42;100262.56;;;36.46;24.70
56713;BME280;42589;45.536;9.032;2022-07-18T08:58:43;100252.84;;;36.71;24.41
56713;BME280;42589;45.536;9.032;2022-07-18T09:01:44;100226.25;;;36.93;23.77
56713;BME280;42589;45.536;9.032;2022-07-18T09:04:45;100230.00;;;36.21;25.30
56713;BME280;42589;45.536;9.032;2022-07-18T09:07:45;100226.16;;;37.07;23.67
56713;BME280;42589;45.536;9.032;2022-07-18T09:10:53;100233.09;;;37.27;24.25
56713;BME280;42589;45.536;9.032;2022-07-18T09:13:54;100240.19;;;37.10;25.22
56713;BME280;42589;45.536;9.032;2022-07-18T09:20:14;100235.84;;;37.18;24.58
56713;BME280;42589;45.536;9.032;2022-07-18T09:23:17;100225.44;;;37.32;23.42
56713;BME280;42589;45.536;9.032;2022-07-18T09:26:37;100239.06;;;37.51;23.60
56713;BME280;42589;45.536;9.032;2022-07-18T09:29:37;100236.56;;;37.01;24.21
56713;BME280;42589;45.536;9.032;2022-07-18T09:32:40;100228.69;;;36.94;24.20
56713;BME280;42589;45.536;9.032;2022-07-18T09:35:50;100230.13;;;36.83;24.14
56713;BME280;42589;45.536;9.032;2022-07-18T09:38:52;100227.00;;;37.47;24.16
56713;BME280;42589;45.536;9.032;2022-07-18T09:41:52;100234.63;;;37.41;23.57
56713;BME280;42589;45.536;9.032;2022-07-18T09:44:58;100227.44;;;37.98;23.71
56713;BME280;42589;45.536;9.032;2022-07-18T09:48:04;100232.75;;;37.68;23.63
56713;BME280;42589;45.536;9.032;2022-07-18T09:51:07;100228.72;;;38.09;23.82
56713;BME280;42589;45.536;9.032;2022-07-18T09:54:07;100229.88;;;38.25;23.01
56713;BME280;42589;45.536;9.032;2022-07-18T09:57:09;100214.50;;;37.84;23.56
56713;BME280;42589;45.536;9.032;2022-07-18T10:00:13;100222.06;;;38.10;23.48
56713;BME280;42589;45.536;9.032;2022-07-18T10:03:15;100220.72;;;37.99;24.22
56713;BME280;42589;45.536;9.032;2022-07-18T10:06:16;100223.81;;;38.06;23.61
56713;BME280;42589;45.536;9.032;2022-07-18T10:09:18;100213.84;;;37.88;24.05
56713;BME280;42589;45.536;9.032;2022-07-18T10:12:19;100231.66;;;37.38;24.35
56713;BME280;42589;45.536;9.032;2022-07-18T10:15:28;100229.84;;;37.25;24.10
56713;BME280;42589;45.536;9.032;2022-07-18T10:18:32;100213.84;;;37.88;23.98
56713;BME280;42589;45.536;9.032;2022-07-18T10:21:34;100220.84;;;37.68;24.36
56713;BME280;42589;45.536;9.032;2022-07-18T10:24:44;100217.63;;;37.92;23.99
56713;BME280;42589;45.536;9.032;2022-07-18T10:28:05;100209.97;;;37.97;23.82
56713;BME280;42589;45.536;9.032;2022-07-18T10:31:14;100199.84;;;37.93;24.89
56713;BME280;42589;45.536;9.032;2022-07-18T10:34:16;100197.69;;;37.90;24.40
56713;BME280;42589;45.536;9.032;2022-07-18T10:37:24;100200.59;;;37.50;24.71
56713;BME280;42589;45.536;9.032;2022-07-18T10:40:29;100180.94;;;37.29;24.75
56713;BME280;42589;45.536;9.032;2022-07-18T10:50:09;100180.25;;;37.98;24.20
56713;BME280;42589;45.536;9.032;2022-07-18T10:53:10;100176.03;;;38.00;24.57
56713;BME280;42589;45.536;9.032;2022-07-18T10:56:11;100187.72;;;38.49;24.70
56713;BME280;42589;45.536;9.032;2022-07-18T10:59:20;100182.69;;;38.25;23.50
56713;BME280;42589;45.536;9.032;2022-07-18T11:02:30;100151.50;;;38.20;23.91
56713;BME280;42589;45.536;9.032;2022-07-18T11:08:33;100159.88;;;39.14;24.02
56713;BME280;42589;45.536;9.032;2022-07-18T11:11:34;100173.97;;;39.68;23.70
56713;BME280;42589;45.536;9.032;2022-07-18T11:14:57;100159.69;;;38.81;24.45
56713;BME280;42589;45.536;9.032;2022-07-18T11:18:02;100162.28;;;38.21;25.27
56713;BME280;42589;45.536;9.032;2022-07-18T11:21:03;100157.59;;;38.69;25.00
56713;BME280;42589;45.536;9.032;2022-07-18T11:24:16;100162.78;;;38.79;24.48
56713;BME280;42589;45.536;9.032;2022-07-18T11:27:17;100156.34;;;39.05;24.14
56713;BME280;42589;45.536;9.032;2022-07-18T11:30:19;100153.19;;;39.15;24.75
56713;BME280;42589;45.536;9.032;2022-07-18T11:33:26;100147.84;;;39.01;24.49
56713;BME280;42589;45.536;9.032;2022-07-18T11:36:31;100144.19;;;39.18;24.61
56713;BME280;42589;45.536;9.032;2022-07-18T11:39:33;100152.56;;;38.62;25.17
56713;BME280;42589;45.536;9.032;2022-07-18T11:42:38;100142.91;;;38.68;24.91
56713;BME280;42589;45.536;9.032;2022-07-18T11:45:40;100137.28;;;39.24;24.49
56713;BME280;42589;45.536;9.032;2022-07-18T11:48:44;100142.53;;;38.87;24.66
56713;BME280;42589;45.536;9.032;2022-07-18T11:51:45;100113.72;;;38.53;24.45
56713;BME280;42589;45.536;9.032;2022-07-18T11:54:46;100131.56;;;38.44;25.35
56713;BME280;42589;45.536;9.032;2022-07-18T11:57:47;100133.47;;;39.08;24.47
56713;BME280;42589;45.536;9.032;2022-07-18T12:00:48;100099.56;;;39.14;24.43
56713;BME280;42589;45.536;9.032;2022-07-18T12:03:50;100124.28;;;39.58;24.15
56713;BME280;42589;45.536;9.032;2022-07-18T12:07:14;100128.25;;;39.27;24.65
56713;BME280;42589;45.536;9.032;2022-07-18T12:10:16;100110.00;;;38.32;25.10
56713;BME280;42589;45.536;9.032;2022-07-18T12:13:16;100099.78;;;39.00;24.94
56713;BME280;42589;45.536;9.032;2022-07-18T12:16:27;100102.31;;;39.65;23.94
56713;BME280;42589;45.536;9.032;2022-07-18T12:19:38;100098.97;;;39.92;23.95
56713;BME280;42589;45.536;9.032;2022-07-18T12:23:08;100090.00;;;39.75;24.30
56713;BME280;42589;45.536;9.032;2022-07-18T12:26:31;100084.25;;;39.92;24.13
56713;BME280;42589;45.536;9.032;2022-07-18T12:29:32;100093.44;;;39.72;23.50
56713;BME280;42589;45.536;9.032;2022-07-18T12:32:55;100077.88;;;39.91;23.99
56713;BME280;42589;45.536;9.032;2022-07-18T12:35:57;100078.88;;;39.75;24.22
56713;BME280;42589;45.536;9.032;2022-07-18T12:39:01;100072.56;;;38.55;26.06
56713;BME280;42589;45.536;9.032;2022-07-18T12:42:02;100063.16;;;38.39;25.82
56713;BME280;42589;45.536;9.032;2022-07-18T12:45:08;100069.00;;;39.56;25.03
56713;BME280;42589;45.536;9.032;2022-07-18T12:48:11;100074.19;;;40.33;24.14
56713;BME280;42589;45.536;9.032;2022-07-18T12:51:12;100065.75;;;40.66;24.06
56713;BME280;42589;45.536;9.032;2022-07-18T12:54:14;100064.88;;;40.17;24.06
56713;BME280;42589;45.536;9.032;2022-07-18T12:57:15;100061.53;;;40.02;24.12
56713;BME280;42589;45.536;9.032;2022-07-18T13:00:16;100053.72;;;40.17;23.52
56713;BME280;42589;45.536;9.032;2022-07-18T13:03:17;100053.31;;;39.94;23.92
56713;BME280;42589;45.536;9.032;2022-07-18T13:06:17;100048.31;;;40.32;24.13
56713;BME280;42589;45.536;9.032;2022-07-18T13:09:18;100048.69;;;40.68;23.36
56713;BME280;42589;45.536;9.032;2022-07-18T13:12:19;100050.06;;;39.70;23.18
56713;BME280;42589;45.536;9.032;2022-07-18T13:15:21;100035.78;;;39.93;23.77
56713;BME280;42589;45.536;9.032;2022-07-18T13:18:22;100043.66;;;40.49;23.85
56713;BME280;42589;45.536;9.032;2022-07-18T13:21:24;100033.81;;;40.39;23.69
56713;BME280;42589;45.536;9.032;2022-07-18T13:24:28;100030.81;;;40.44;23.97
56713;BME280;42589;45.536;9.032;2022-07-18T13:27:28;100028.69;;;40.29;24.23
56713;BME280;42589;45.536;9.032;2022-07-18T13:30:29;100011.78;;;40.71;23.62
56713;BME280;42589;45.536;9.032;2022-07-18T13:33:31;100008.28;;;40.49;24.24
56713;BME280;42589;45.536;9.032;2022-07-18T13:36:32;100023.81;;;40.99;23.35
56713;BME280;42589;45.536;9.032;2022-07-18T13:39:32;100017.53;;;40.90;23.61
56713;BME280;42589;45.536;9.032;2022-07-18T13:42:35;100021.16;;;40.66;23.41
56713;BME280;42589;45.536;9.032;2022-07-18T13:45:36;100018.28;;;41.27;22.96
56713;BME280;42589;45.536;9.032;2022-07-18T13:48:38;100010.47;;;41.05;22.87
56713;BME280;42589;45.536;9.032;2022-07-18T13:51:39;100001.63;;;41.43;23.15
56713;BME280;42589;45.536;9.032;2022-07-18T13:54:40;100015.38;;;41.64;24.18
56713;BME280;42589;45.536;9.032;2022-07-18T13:57:40;99990.03;;;41.29;22.34
56713;BME280;42589;45.536;9.032;2022-07-18T14:00:43;99990.03;;;40.89;23.49
56713;BME280;42589;45.536;9.032;2022-07-18T14:03:44;99986.28;;;40.97;23.98
56713;BME280;42589;45.536;9.032;2022-07-18T14:06:46;99989.75;;;41.18;23.69
56713;BME280;42589;45.536;9.032;2022-07-18T14:09:46;99974.34;;;41.09;23.95
56713;BME280;42589;45.536;9.032;2022-07-18T14:12:47;99989.28;;;41.44;23.57
56713;BME280;42589;45.536;9.032;2022-07-18T14:15:48;99985.66;;;41.56;23.32
56713;BME280;42589;45.536;9.032;2022-07-18T14:18:51;99980.56;;;41.18;23.30
56713;BME280;42589;45.536;9.032;2022-07-18T14:21:52;99963.09;;;40.07;24.56
56713;BME280;42589;45.536;9.032;2022-07-18T14:24:54;99972.09;;;41.42;23.65
56713;BME280;42589;45.536;9.032;2022-07-18T14:27:56;99952.31;;;41.75;23.05
56713;BME280;42589;45.536;9.032;2022-07-18T14:30:56;99955.69;;;41.25;23.22
56713;BME280;42589;45.536;9.032;2022-07-18T14:33:58;99956.75;;;40.68;23.35
56713;BME280;42589;45.536;9.032;2022-07-18T14:36:59;99966.31;;;41.07;23.95
56713;BME280;42589;45.536;9.032;2022-07-18T14:40:00;99964.38;;;40.83;24.06
56713;BME280;42589;45.536;9.032;2022-07-18T14:43:01;99944.69;;;40.76;23.53
56713;BME280;42589;45.536;9.032;2022-07-18T14:46:06;99948.44;;;41.36;23.26
56713;BME280;42589;45.536;9.032;2022-07-18T14:49:06;99953.75;;;40.36;23.98
56713;BME280;42589;45.536;9.032;2022-07-18T14:52:07;99944.22;;;40.74;23.70
56713;BME280;42589;45.536;9.032;2022-07-18T14:55:09;99947.44;;;41.44;22.67
56713;BME280;42589;45.536;9.032;2022-07-18T14:58:12;99952.31;;;41.75;22.73
56713;BME280;42589;45.536;9.032;2022-07-18T15:01:13;99939.84;;;41.29;22.92
56713;BME280;42589;45.536;9.032;2022-07-18T15:04:15;99942.69;;;41.17;23.52
56713;BME280;42589;45.536;9.032;2022-07-18T15:07:16;99940.56;;;41.54;24.23
56713;BME280;42589;45.536;9.032;2022-07-18T15:10:16;99948.38;;;42.08;23.04
56713;BME280;42589;45.536;9.032;2022-07-18T15:13:17;99934.72;;;43.28;20.73
56713;BME280;42589;45.536;9.032;2022-07-18T15:16:18;99929.69;;;45.47;18.84
56713;BME280;42589;45.536;9.032;2022-07-18T15:19:18;99930.75;;;46.75;17.87
56713;BME280;42589;45.536;9.032;2022-07-18T15:22:19;99946.16;;;45.48;19.65
56713;BME280;42589;45.536;9.032;2022-07-18T15:25:23;99934.06;;;44.77;19.72
56713;BME280;42589;45.536;9.032;2022-07-18T15:28:24;99928.13;;;44.55;19.27
56713;BME280;42589;45.536;9.032;2022-07-18T15:31:25;99929.75;;;45.16;19.30
56713;BME280;42589;45.536;9.032;2022-07-18T15:34:25;99926.00;;;45.80;18.81
56713;BME280;42589;45.536;9.032;2022-07-18T15:37:26;99926.09;;;46.39;19.27
56713;BME280;42589;45.536;9.032;2022-07-18T15:40:27;99924.06;;;47.02;17.88
56713;BME280;42589;45.536;9.032;2022-07-18T15:43:28;99933.63;;;45.42;19.57
56713;BME280;42589;45.536;9.032;2022-07-18T15:46:30;99913.16;;;45.79;19.78
56713;BME280;42589;45.536;9.032;2022-07-18T15:49:31;99912.88;;;46.43;18.56
56713;BME280;42589;45.536;9.032;2022-07-18T15:52:32;99908.88;;;46.44;18.82
56713;BME280;42589;45.536;9.032;2022-07-18T15:55:36;99913.84;;;44.11;20.43
56713;BME280;42589;45.536;9.032;2022-07-18T15:58:37;99905.22;;;46.40;18.48
56713;BME280;42589;45.536;9.032;2022-07-18T16:01:38;99911.78;;;46.03;19.00
56713;BME280;42589;45.536;9.032;2022-07-18T16:04:39;99914.75;;;45.76;19.09
56713;BME280;42589;45.536;9.032;2022-07-18T16:07:40;99909.63;;;47.10;18.44